sensor_id;sensor_type;location;lat;lon;timestamp;pressure;altitude;pressure_sealevel;temperature;humidity
13041;BME280;6587;42.728;23.288;2024-03-02T00:00:50;94828.19;;;7.66;89.99
13041;BME280;6587;42.728;23.288;2024-03-02T00:03:18;94823.72;;;7.81;89.42
13041;BME280;6587;42.728;23.288;2024-03-02T00:05:49;94823.72;;;7.81;89.16
13041;BME280;6587;42.728;23.288;2024-03-02T00:08:23;94832.06;;;7.90;89.60
13041;BME280;6587;42.728;23.288;2024-03-02T00:10:57;94832.81;;;7.97;88.66
13041;BME280;6587;42.728;23.288;2024-03-02T00:13:24;94822.97;;;7.87;89.00
13041;BME280;6587;42.728;23.288;2024-03-02T00:15:52;94818.41;;;7.88;89.80
13041;BME280;6587;42.728;23.288;2024-03-02T00:18:20;94817.66;;;7.80;89.13
13041;BME280;6587;42.728;23.288;2024-03-02T00:20:47;94824.44;;;7.71;89.04
13041;BME280;6587;42.728;23.288;2024-03-02T00:23:16;94826.38;;;7.88;89.32
13041;BME280;6587;42.728;23.288;2024-03-02T00:25:45;94825.63;;;7.91;88.00
13041;BME280;6587;42.728;23.288;2024-03-02T00:28:19;94832.03;;;7.79;88.74
13041;BME280;6587;42.728;23.288;2024-03-02T00:30:56;94822.19;;;7.83;88.61
13041;BME280;6587;42.728;23.288;2024-03-02T00:33:27;94815.41;;;7.86;88.30
13041;BME280;6587;42.728;23.288;2024-03-02T00:35:55;94824.47;;;7.88;88.40
13041;BME280;6587;42.728;23.288;2024-03-02T00:38:22;94821.81;;;7.78;89.39
13041;BME280;6587;42.728;23.288;2024-03-02T00:40:49;94802.84;;;7.69;89.25
13041;BME280;6587;42.728;23.288;2024-03-02T00:43:42;94802.13;;;7.79;88.77
13041;BME280;6587;42.728;23.288;2024-03-02T00:46:15;94799.41;;;7.54;89.49
13041;BME280;6587;42.728;23.288;2024-03-02T00:48:51;94809.97;;;7.51;90.67
13041;BME280;6587;42.728;23.288;2024-03-02T00:51:20;94810.00;;;7.61;90.07
13041;BME280;6587;42.728;23.288;2024-03-02T00:53:47;94812.66;;;7.54;91.17
13041;BME280;6587;42.728;23.288;2024-03-02T00:56:14;94795.56;;;7.38;91.05
13041;BME280;6587;42.728;23.288;2024-03-02T00:58:42;94791.78;;;7.42;91.35
13041;BME280;6587;42.728;23.288;2024-03-02T01:01:09;94791.78;;;7.39;91.62
13041;BME280;6587;42.728;23.288;2024-03-02T01:03:36;94799.34;;;7.44;92.09
13041;BME280;6587;42.728;23.288;2024-03-02T01:06:04;94802.41;;;7.46;92.44
13041;BME280;6587;42.728;23.288;2024-03-02T01:08:33;94809.22;;;7.54;92.54
13041;BME280;6587;42.728;23.288;2024-03-02T01:11:00;94804.28;;;7.49;91.72
13041;BME280;6587;42.728;23.288;2024-03-02T01:13:27;94807.00;;;7.63;91.68
13041;BME280;6587;42.728;23.288;2024-03-02T01:15:55;94802.81;;;7.58;91.24
13041;BME280;6587;42.728;23.288;2024-03-02T01:18:22;94800.88;;;7.45;92.30
13041;BME280;6587;42.728;23.288;2024-03-02T01:20:49;94791.03;;;7.42;92.55
13041;BME280;6587;42.728;23.288;2024-03-02T01:23:18;94787.25;;;7.43;93.14
13041;BME280;6587;42.728;23.288;2024-03-02T01:25:46;94774.78;;;7.43;92.82
13041;BME280;6587;42.728;23.288;2024-03-02T01:28:13;94784.97;;;7.38;92.79
13041;BME280;6587;42.728;23.288;2024-03-02T01:30:40;94781.97;;;7.53;92.75
13041;BME280;6587;42.728;23.288;2024-03-02T01:33:08;94782.38;;;7.48;92.41
13041;BME280;6587;42.728;23.288;2024-03-02T01:35:35;94772.16;;;7.50;92.63
13041;BME280;6587;42.728;23.288;2024-03-02T01:38:03;94769.88;;;7.45;92.93
13041;BME280;6587;42.728;23.288;2024-03-02T01:40:32;94773.66;;;7.48;92.95
13041;BME280;6587;42.728;23.288;2024-03-02T01:42:58;94770.94;;;7.30;94.06
13041;BME280;6587;42.728;23.288;2024-03-02T01:45:25;94769.41;;;7.26;94.02
13041;BME280;6587;42.728;23.288;2024-03-02T01:47:52;94769.81;;;7.31;93.59
13041;BME280;6587;42.728;23.288;2024-03-02T01:50:26;94757.31;;;7.21;94.69
13041;BME280;6587;42.728;23.288;2024-03-02T01:52:54;94751.63;;;7.19;94.93
13041;BME280;6587;42.728;23.288;2024-03-02T01:55:21;94755.81;;;7.31;94.48
13041;BME280;6587;42.728;23.288;2024-03-02T01:57:48;94764.53;;;7.35;94.34
13041;BME280;6587;42.728;23.288;2024-03-02T02:00:16;94750.56;;;7.34;94.07
13041;BME280;6587;42.728;23.288;2024-03-02T02:02:43;94761.53;;;7.43;94.64
13041;BME280;6587;42.728;23.288;2024-03-02T02:05:11;94767.19;;;7.35;94.61
13041;BME280;6587;42.728;23.288;2024-03-02T02:07:40;94780.06;;;7.43;94.37
13041;BME280;6587;42.728;23.288;2024-03-02T02:10:07;94763.78;;;7.38;93.89
13041;BME280;6587;42.728;23.288;2024-03-02T02:12:35;94766.88;;;7.64;93.38
13041;BME280;6587;42.728;23.288;2024-03-02T02:15:02;94768.41;;;7.72;92.96
13041;BME280;6587;42.728;23.288;2024-03-02T02:17:29;94747.94;;;7.45;93.15
13041;BME280;6587;42.728;23.288;2024-03-02T02:19:56;94754.81;;;7.70;92.15
13041;BME280;6587;42.728;23.288;2024-03-02T02:22:24;94769.19;;;7.76;92.31
13041;BME280;6587;42.728;23.288;2024-03-02T02:24:51;94766.16;;;7.71;92.03
13041;BME280;6587;42.728;23.288;2024-03-02T02:27:18;94763.84;;;7.66;92.29
13041;BME280;6587;42.728;23.288;2024-03-02T02:29:45;94764.63;;;7.63;92.52
13041;BME280;6587;42.728;23.288;2024-03-02T02:32:12;94768.78;;;7.64;92.10
13041;BME280;6587;42.728;23.288;2024-03-02T02:34:39;94769.91;;;7.63;91.90
13041;BME280;6587;42.728;23.288;2024-03-02T02:37:05;94776.25;;;7.34;91.84
13041;BME280;6587;42.728;23.288;2024-03-02T02:39:34;94778.09;;;7.23;93.90
13041;BME280;6587;42.728;23.288;2024-03-02T02:42:00;94771.28;;;7.18;94.45
13041;BME280;6587;42.728;23.288;2024-03-02T02:44:28;94769.38;;;7.15;94.35
13041;BME280;6587;42.728;23.288;2024-03-02T02:46:55;94773.16;;;7.18;94.27
13041;BME280;6587;42.728;23.288;2024-03-02T02:49:21;94774.38;;;7.38;94.15
13041;BME280;6587;42.728;23.288;2024-03-02T02:51:48;94770.97;;;7.41;92.39
13041;BME280;6587;42.728;23.288;2024-03-02T02:54:15;94772.16;;;7.47;91.50
13041;BME280;6587;42.728;23.288;2024-03-02T02:56:43;94767.66;;;7.58;92.03
13041;BME280;6587;42.728;23.288;2024-03-02T02:59:10;94775.19;;;7.63;92.10
13041;BME280;6587;42.728;23.288;2024-03-02T03:01:37;94770.69;;;7.63;90.90
13041;BME280;6587;42.728;23.288;2024-03-02T03:04:04;94777.50;;;7.61;91.72
13041;BME280;6587;42.728;23.288;2024-03-02T03:06:31;94780.16;;;7.68;91.16
13041;BME280;6587;42.728;23.288;2024-03-02T03:08:57;94780.91;;;7.65;90.32
13041;BME280;6587;42.728;23.288;2024-03-02T03:11:24;94774.84;;;7.68;90.89
13041;BME280;6587;42.728;23.288;2024-03-02T03:13:53;94774.13;;;7.78;90.28
13041;BME280;6587;42.728;23.288;2024-03-02T03:16:21;94780.88;;;7.58;90.50
13041;BME280;6587;42.728;23.288;2024-03-02T03:18:48;94769.91;;;7.56;90.83
13041;BME280;6587;42.728;23.288;2024-03-02T03:21:17;94773.38;;;7.84;91.35
13041;BME280;6587;42.728;23.288;2024-03-02T03:23:43;94771.09;;;7.83;90.39
13041;BME280;6587;42.728;23.288;2024-03-02T03:26:10;94774.09;;;7.81;90.65
13041;BME280;6587;42.728;23.288;2024-03-02T03:28:37;94775.25;;;7.77;91.78
13041;BME280;6587;42.728;23.288;2024-03-02T03:31:05;94776.78;;;7.85;91.31
13041;BME280;6587;42.728;23.288;2024-03-02T03:33:32;94776.78;;;7.85;91.00
13041;BME280;6587;42.728;23.288;2024-03-02T03:36:00;94775.25;;;7.80;91.48
13041;BME280;6587;42.728;23.288;2024-03-02T03:38:28;94783.59;;;7.82;91.65
13041;BME280;6587;42.728;23.288;2024-03-02T03:40:55;94787.38;;;7.78;91.78
13041;BME280;6587;42.728;23.288;2024-03-02T03:43:22;94779.03;;;7.83;91.31
13041;BME280;6587;42.728;23.288;2024-03-02T03:45:49;94772.25;;;7.85;91.18
13041;BME280;6587;42.728;23.288;2024-03-02T03:48:17;94781.34;;;7.84;91.71
13041;BME280;6587;42.728;23.288;2024-03-02T03:50:44;94777.13;;;7.73;92.13
13041;BME280;6587;42.728;23.288;2024-03-02T03:53:11;94779.81;;;7.87;91.47
13041;BME280;6587;42.728;23.288;2024-03-02T03:55:38;94779.06;;;7.90;91.71
13041;BME280;6587;42.728;23.288;2024-03-02T03:58:04;94778.31;;;7.86;90.68
13041;BME280;6587;42.728;23.288;2024-03-02T04:00:31;94773.72;;;7.83;92.19
13041;BME280;6587;42.728;23.288;2024-03-02T04:02:58;94775.28;;;7.87;92.49
13041;BME280;6587;42.728;23.288;2024-03-02T04:05:26;94780.53;;;7.77;92.79
13041;BME280;6587;42.728;23.288;2024-03-02T04:07:53;94778.28;;;7.82;92.24
13041;BME280;6587;42.728;23.288;2024-03-02T04:10:20;94766.94;;;7.75;93.06
13041;BME280;6587;42.728;23.288;2024-03-02T04:12:46;94773.63;;;7.41;92.94
13041;BME280;6587;42.728;23.288;2024-03-02T04:15:13;94773.66;;;7.48;93.61
13041;BME280;6587;42.728;23.288;2024-03-02T04:17:40;94769.56;;;7.82;93.72
13041;BME280;6587;42.728;23.288;2024-03-02T04:20:07;94773.72;;;7.76;94.08
13041;BME280;6587;42.728;23.288;2024-03-02T04:22:36;94778.59;;;7.56;94.26
13041;BME280;6587;42.728;23.288;2024-03-02T04:25:03;94766.19;;;7.78;94.82
13041;BME280;6587;42.728;23.288;2024-03-02T04:27:30;94780.50;;;7.63;95.11
13041;BME280;6587;42.728;23.288;2024-03-02T04:29:58;94781.59;;;7.55;95.62
13041;BME280;6587;42.728;23.288;2024-03-02T04:32:26;94780.00;;;7.26;95.89
13041;BME280;6587;42.728;23.288;2024-03-02T04:34:53;94775.59;;;7.58;95.62
13041;BME280;6587;42.728;23.288;2024-03-02T04:37:20;94769.88;;;7.42;96.78
13041;BME280;6587;42.728;23.288;2024-03-02T04:39:48;94777.44;;;7.47;96.75
13041;BME280;6587;42.728;23.288;2024-03-02T04:42:15;94781.22;;;7.56;96.78
13041;BME280;6587;42.728;23.288;2024-03-02T04:44:42;94780.06;;;7.43;97.27
13041;BME280;6587;42.728;23.288;2024-03-02T04:47:09;94787.28;;;7.50;98.08
13041;BME280;6587;42.728;23.288;2024-03-02T04:49:36;94778.28;;;7.72;97.17
13041;BME280;6587;42.728;23.288;2024-03-02T04:52:03;94785.44;;;7.61;97.36
13041;BME280;6587;42.728;23.288;2024-03-02T04:54:30;94788.78;;;7.47;97.69
13041;BME280;6587;42.728;23.288;2024-03-02T04:56:58;94786.56;;;7.63;97.60
13041;BME280;6587;42.728;23.288;2024-03-02T04:59:26;94787.31;;;7.57;97.72
13041;BME280;6587;42.728;23.288;2024-03-02T05:01:53;94789.50;;;7.41;97.48
13041;BME280;6587;42.728;23.288;2024-03-02T05:04:19;94788.38;;;7.38;97.83
13041;BME280;6587;42.728;23.288;2024-03-02T05:06:46;94797.88;;;7.46;98.09
13041;BME280;6587;42.728;23.288;2024-03-02T05:09:18;94797.47;;;7.37;98.77
13041;BME280;6587;42.728;23.288;2024-03-02T05:11:44;94799.38;;;7.47;99.22
13041;BME280;6587;42.728;23.288;2024-03-02T05:14:42;94801.69;;;7.63;99.09
13041;BME280;6587;42.728;23.288;2024-03-02T05:17:09;94801.66;;;7.52;98.93
13041;BME280;6587;42.728;23.288;2024-03-02T05:19:36;94802.41;;;7.46;99.29
13041;BME280;6587;42.728;23.288;2024-03-02T05:22:03;94812.59;;;7.44;98.87
13041;BME280;6587;42.728;23.288;2024-03-02T05:24:29;94801.66;;;7.45;99.82
13041;BME280;6587;42.728;23.288;2024-03-02T05:26:56;94817.66;;;6.95;100.00
13041;BME280;6587;42.728;23.288;2024-03-02T05:29:23;94815.50;;;7.18;100.00
13041;BME280;6587;42.728;23.288;2024-03-02T05:31:52;94812.16;;;7.28;100.00
13041;BME280;6587;42.728;23.288;2024-03-02T05:34:18;94808.72;;;7.17;100.00
13041;BME280;6587;42.728;23.288;2024-03-02T05:36:45;94822.03;;;7.41;100.00
13041;BME280;6587;42.728;23.288;2024-03-02T05:39:12;94816.03;;;7.55;100.00
13041;BME280;6587;42.728;23.288;2024-03-02T05:41:39;94829.94;;;7.27;100.00
13041;BME280;6587;42.728;23.288;2024-03-02T05:44:06;94831.78;;;7.20;100.00
13041;BME280;6587;42.728;23.288;2024-03-02T05:46:33;94830.38;;;7.40;100.00
13041;BME280;6587;42.728;23.288;2024-03-02T05:49:01;94831.72;;;7.13;100.00
13041;BME280;6587;42.728;23.288;2024-03-02T05:51:28;94835.91;;;7.14;100.00
13041;BME280;6587;42.728;23.288;2024-03-02T05:53:54;94834.16;;;7.42;100.00
13041;BME280;6587;42.728;23.288;2024-03-02T05:56:21;94841.06;;;7.68;100.00
13041;BME280;6587;42.728;23.288;2024-03-02T05:58:48;94831.91;;;7.48;100.00
13041;BME280;6587;42.728;23.288;2024-03-02T06:01:26;94838.81;;;7.70;100.00
13041;BME280;6587;42.728;23.288;2024-03-02T06:03:55;94835.81;;;7.82;100.00
13041;BME280;6587;42.728;23.288;2024-03-02T06:06:23;94834.25;;;7.67;100.00
13041;BME280;6587;42.728;23.288;2024-03-02T06:08:50;94841.41;;;7.56;100.00
13041;BME280;6587;42.728;23.288;2024-03-02T06:11:17;94831.22;;;7.58;100.00
13041;BME280;6587;42.728;23.288;2024-03-02T06:13:45;94832.72;;;7.59;100.00
13041;BME280;6587;42.728;23.288;2024-03-02T06:16:12;94838.41;;;7.61;100.00
13041;BME280;6587;42.728;23.288;2024-03-02T06:18:39;94835.00;;;7.60;100.00
13041;BME280;6587;42.728;23.288;2024-03-02T06:21:05;94844.06;;;7.63;100.00
13041;BME280;6587;42.728;23.288;2024-03-02T06:23:34;94832.63;;;7.41;100.00
13041;BME280;6587;42.728;23.288;2024-03-02T06:26:00;94833.06;;;7.47;100.00
13041;BME280;6587;42.728;23.288;2024-03-02T06:28:27;94838.75;;;7.56;100.00
13041;BME280;6587;42.728;23.288;2024-03-02T06:30:54;94837.97;;;7.52;100.00
13041;BME280;6587;42.728;23.288;2024-03-02T06:33:21;94844.47;;;7.58;100.00
13041;BME280;6587;42.728;23.288;2024-03-02T06:35:48;94847.53;;;7.74;100.00
13041;BME280;6587;42.728;23.288;2024-03-02T06:38:15;94844.03;;;7.49;100.00
13041;BME280;6587;42.728;23.288;2024-03-02T06:40:43;94848.94;;;7.43;100.00
13041;BME280;6587;42.728;23.288;2024-03-02T06:43:10;94848.56;;;7.52;100.00
13041;BME280;6587;42.728;23.288;2024-03-02T06:45:37;94853.50;;;7.57;100.00
13041;BME280;6587;42.728;23.288;2024-03-02T06:48:04;94851.66;;;7.64;100.00
13041;BME280;6587;42.728;23.288;2024-03-02T06:50:31;94853.91;;;7.66;100.00
13041;BME280;6587;42.728;23.288;2024-03-02T06:52:58;94856.19;;;7.67;100.00
13041;BME280;6587;42.728;23.288;2024-03-02T06:55:25;94858.81;;;7.57;100.00
13041;BME280;6587;42.728;23.288;2024-03-02T06:57:53;94864.56;;;7.73;100.00
13041;BME280;6587;42.728;23.288;2024-03-02T07:00:20;94857.34;;;7.66;100.00
13041;BME280;6587;42.728;23.288;2024-03-02T07:02:47;94863.72;;;7.55;99.94
13041;BME280;6587;42.728;23.288;2024-03-02T07:05:14;94864.88;;;7.57;100.00
13041;BME280;6587;42.728;23.288;2024-03-02T07:07:41;94863.72;;;7.58;100.00
13041;BME280;6587;42.728;23.288;2024-03-02T07:10:08;94874.31;;;7.55;100.00
13041;BME280;6587;42.728;23.288;2024-03-02T07:12:35;94871.22;;;7.42;100.00
13041;BME280;6587;42.728;23.288;2024-03-02T07:15:04;94864.47;;;7.55;100.00
13041;BME280;6587;42.728;23.288;2024-03-02T07:17:48;94869.81;;;7.62;100.00
13041;BME280;6587;42.728;23.288;2024-03-02T07:20:15;94871.38;;;7.70;100.00
13041;BME280;6587;42.728;23.288;2024-03-02T07:22:42;94872.91;;;7.75;99.91
13041;BME280;6587;42.728;23.288;2024-03-02T07:25:09;94874.00;;;7.74;100.00
13041;BME280;6587;42.728;23.288;2024-03-02T07:27:36;94872.88;;;7.71;99.95
13041;BME280;6587;42.728;23.288;2024-03-02T07:30:05;94872.16;;;7.78;99.15
13041;BME280;6587;42.728;23.288;2024-03-02T07:32:32;94872.09;;;7.71;100.00
13041;BME280;6587;42.728;23.288;2024-03-02T07:34:59;94872.06;;;7.60;99.75
13041;BME280;6587;42.728;23.288;2024-03-02T07:37:27;94878.56;;;7.70;99.82
13041;BME280;6587;42.728;23.288;2024-03-02T07:39:53;94877.81;;;7.80;100.00
13041;BME280;6587;42.728;23.288;2024-03-02T07:42:20;94875.56;;;7.75;100.00
13041;BME280;6587;42.728;23.288;2024-03-02T07:44:47;94882.72;;;7.74;100.00
13041;BME280;6587;42.728;23.288;2024-03-02T07:47:15;94881.25;;;7.91;99.98
13041;BME280;6587;42.728;23.288;2024-03-02T07:49:44;94882.00;;;7.88;99.62
13041;BME280;6587;42.728;23.288;2024-03-02T07:52:11;94880.47;;;7.76;99.64
13041;BME280;6587;42.728;23.288;2024-03-02T07:54:38;94884.66;;;7.81;99.22
13041;BME280;6587;42.728;23.288;2024-03-02T07:57:05;94888.06;;;7.85;99.44
13041;BME280;6587;42.728;23.288;2024-03-02T07:59:32;94885.38;;;7.74;99.87
13041;BME280;6587;42.728;23.288;2024-03-02T08:01:58;94885.00;;;7.83;99.56
13041;BME280;6587;42.728;23.288;2024-03-02T08:04:27;94885.81;;;7.87;99.29
13041;BME280;6587;42.728;23.288;2024-03-02T08:06:54;94889.97;;;7.84;98.87
13041;BME280;6587;42.728;23.288;2024-03-02T08:09:21;94888.81;;;7.82;99.47
13041;BME280;6587;42.728;23.288;2024-03-02T08:11:47;94897.19;;;7.94;98.75
13041;BME280;6587;42.728;23.288;2024-03-02T08:14:14;94889.59;;;7.86;98.75
13041;BME280;6587;42.728;23.288;2024-03-02T08:16:41;94898.28;;;7.86;99.07
13041;BME280;6587;42.728;23.288;2024-03-02T08:19:08;94897.19;;;7.98;98.81
13041;BME280;6587;42.728;23.288;2024-03-02T08:21:36;94893.75;;;7.87;98.88
13041;BME280;6587;42.728;23.288;2024-03-02T08:24:04;94893.34;;;7.78;98.17
13041;BME280;6587;42.728;23.288;2024-03-02T08:26:31;94892.25;;;7.86;98.41
13041;BME280;6587;42.728;23.288;2024-03-02T08:28:58;94891.88;;;7.87;97.93
13041;BME280;6587;42.728;23.288;2024-03-02T08:31:27;94897.16;;;7.87;98.26
13041;BME280;6587;42.728;23.288;2024-03-02T08:33:53;94888.91;;;8.03;98.87
13041;BME280;6587;42.728;23.288;2024-03-02T08:36:20;94893.47;;;8.10;98.09
13041;BME280;6587;42.728;23.288;2024-03-02T08:38:49;94894.94;;;8.03;97.67
13041;BME280;6587;42.728;23.288;2024-03-02T08:41:17;94885.91;;;8.22;97.80
13041;BME280;6587;42.728;23.288;2024-03-02T08:43:44;94898.84;;;8.38;97.23
13041;BME280;6587;42.728;23.288;2024-03-02T08:46:11;94892.78;;;8.27;97.45
13041;BME280;6587;42.728;23.288;2024-03-02T08:48:37;94893.56;;;8.55;97.61
13041;BME280;6587;42.728;23.288;2024-03-02T08:51:04;94899.63;;;8.59;96.91
13041;BME280;6587;42.728;23.288;2024-03-02T08:53:33;94894.31;;;8.45;95.45
13041;BME280;6587;42.728;23.288;2024-03-02T08:56:02;94890.53;;;8.50;95.83
13041;BME280;6587;42.728;23.288;2024-03-02T08:58:31;94904.19;;;8.73;95.72
13041;BME280;6587;42.728;23.288;2024-03-02T09:00:58;94897.75;;;8.81;94.79
13041;BME280;6587;42.728;23.288;2024-03-02T09:03:24;94897.75;;;8.77;95.37
13041;BME280;6587;42.728;23.288;2024-03-02T09:05:51;94901.94;;;8.92;94.97
13041;BME280;6587;42.728;23.288;2024-03-02T09:08:18;94898.88;;;9.11;94.79
13041;BME280;6587;42.728;23.288;2024-03-02T09:10:45;94900.41;;;8.77;94.28
13041;BME280;6587;42.728;23.288;2024-03-02T09:13:13;94903.06;;;9.16;94.21
13041;BME280;6587;42.728;23.288;2024-03-02T09:15:40;94910.94;;;9.47;93.91
13041;BME280;6587;42.728;23.288;2024-03-02T09:18:07;94907.59;;;9.29;92.56
13041;BME280;6587;42.728;23.288;2024-03-02T09:20:33;94907.53;;;9.57;93.43
13041;BME280;6587;42.728;23.288;2024-03-02T09:23:00;94916.97;;;9.76;91.52
13041;BME280;6587;42.728;23.288;2024-03-02T09:25:27;94921.53;;;9.69;90.56
13041;BME280;6587;42.728;23.288;2024-03-02T09:27:54;94912.41;;;9.70;90.14
13041;BME280;6587;42.728;23.288;2024-03-02T09:30:22;94918.44;;;9.88;89.96
13041;BME280;6587;42.728;23.288;2024-03-02T09:32:49;94914.69;;;9.75;89.55
13041;BME280;6587;42.728;23.288;2024-03-02T09:35:15;94915.47;;;9.72;89.25
13041;BME280;6587;42.728;23.288;2024-03-02T09:37:43;94921.50;;;9.83;89.25
13041;BME280;6587;42.728;23.288;2024-03-02T09:40:11;94924.91;;;9.83;89.28
13041;BME280;6587;42.728;23.288;2024-03-02T09:42:38;94919.22;;;9.74;89.01
13041;BME280;6587;42.728;23.288;2024-03-02T09:45:06;94930.53;;;9.99;89.24
13041;BME280;6587;42.728;23.288;2024-03-02T09:47:34;94929.78;;;10.09;88.00
13041;BME280;6587;42.728;23.288;2024-03-02T09:50:01;94924.94;;;9.80;88.05
13041;BME280;6587;42.728;23.288;2024-03-02T09:52:30;94921.06;;;10.02;88.04
13041;BME280;6587;42.728;23.288;2024-03-02T09:54:57;94924.78;;;10.22;88.27
13041;BME280;6587;42.728;23.288;2024-03-02T09:57:24;94923.00;;;9.94;88.26
13041;BME280;6587;42.728;23.288;2024-03-02T09:59:51;94929.81;;;9.92;89.22
13041;BME280;6587;42.728;23.288;2024-03-02T10:02:18;94927.53;;;9.87;89.23
13041;BME280;6587;42.728;23.288;2024-03-02T10:04:49;94923.81;;;9.70;88.48
13041;BME280;6587;42.728;23.288;2024-03-02T10:07:17;94918.53;;;9.49;90.00
13041;BME280;6587;42.728;23.288;2024-03-02T10:09:44;94923.00;;;9.91;89.73
13041;BME280;6587;42.728;23.288;2024-03-02T10:12:13;94917.25;;;9.99;89.34
13041;BME280;6587;42.728;23.288;2024-03-02T10:14:40;94920.72;;;9.86;89.98
13041;BME280;6587;42.728;23.288;2024-03-02T10:17:09;94921.06;;;9.95;90.24
13041;BME280;6587;42.728;23.288;2024-03-02T10:19:37;94922.22;;;9.94;89.33
13041;BME280;6587;42.728;23.288;2024-03-02T10:22:07;94913.94;;;9.71;89.15
13041;BME280;6587;42.728;23.288;2024-03-02T10:24:36;94919.63;;;9.80;89.94
13041;BME280;6587;42.728;23.288;2024-03-02T10:27:06;94916.53;;;9.88;90.35
13041;BME280;6587;42.728;23.288;2024-03-02T10:29:37;94914.28;;;9.83;90.51
13041;BME280;6587;42.728;23.288;2024-03-02T10:32:04;94912.78;;;9.79;90.94
13041;BME280;6587;42.728;23.288;2024-03-02T10:34:32;94918.13;;;9.72;90.93
13041;BME280;6587;42.728;23.288;2024-03-02T10:36:59;94920.38;;;9.70;91.35
13041;BME280;6587;42.728;23.288;2024-03-02T10:39:28;94917.00;;;9.66;91.68
13041;BME280;6587;42.728;23.288;2024-03-02T10:41:56;94913.19;;;9.67;92.36
13041;BME280;6587;42.728;23.288;2024-03-02T10:44:23;94917.72;;;9.73;92.55
13041;BME280;6587;42.728;23.288;2024-03-02T10:46:51;94909.41;;;9.68;92.70
13041;BME280;6587;42.728;23.288;2024-03-02T10:49:20;94913.53;;;9.79;93.61
13041;BME280;6587;42.728;23.288;2024-03-02T10:51:49;94908.94;;;9.87;92.88
13041;BME280;6587;42.728;23.288;2024-03-02T10:54:16;94906.31;;;9.73;92.49
13041;BME280;6587;42.728;23.288;2024-03-02T10:56:46;94897.25;;;9.67;92.78
13041;BME280;6587;42.728;23.288;2024-03-02T10:59:17;94909.75;;;9.73;92.33
13041;BME280;6587;42.728;23.288;2024-03-02T11:01:48;94897.28;;;9.60;92.43
13041;BME280;6587;42.728;23.288;2024-03-02T11:04:18;94904.44;;;9.77;92.66
13041;BME280;6587;42.728;23.288;2024-03-02T11:06:49;94902.88;;;9.90;92.46
13041;BME280;6587;42.728;23.288;2024-03-02T11:09:18;94902.91;;;9.76;91.09
13041;BME280;6587;42.728;23.288;2024-03-02T11:11:54;94894.91;;;9.83;90.82
13041;BME280;6587;42.728;23.288;2024-03-02T11:14:24;94898.66;;;9.96;90.38
13041;BME280;6587;42.728;23.288;2024-03-02T11:16:52;94897.97;;;9.81;89.91
13041;BME280;6587;42.728;23.288;2024-03-02T11:19:19;94890.69;;;9.96;89.25
13041;BME280;6587;42.728;23.288;2024-03-02T11:21:47;94887.16;;;10.20;89.03
13041;BME280;6587;42.728;23.288;2024-03-02T11:24:33;94890.59;;;10.20;88.81
13041;BME280;6587;42.728;23.288;2024-03-02T11:27:03;94893.56;;;10.33;88.72
13041;BME280;6587;42.728;23.288;2024-03-02T11:29:45;94892.69;;;10.50;88.35
13041;BME280;6587;42.728;23.288;2024-03-02T11:32:17;94894.66;;;10.46;87.69
13041;BME280;6587;42.728;23.288;2024-03-02T11:34:46;94880.16;;;10.54;87.38
13041;BME280;6587;42.728;23.288;2024-03-02T11:37:13;94883.84;;;10.67;86.48
13041;BME280;6587;42.728;23.288;2024-03-02T11:39:42;94875.41;;;10.79;85.90
13041;BME280;6587;42.728;23.288;2024-03-02T11:42:11;94881.19;;;10.67;85.14
13041;BME280;6587;42.728;23.288;2024-03-02T11:44:41;94885.94;;;10.93;85.58
13041;BME280;6587;42.728;23.288;2024-03-02T11:47:10;94885.09;;;10.99;84.31
13041;BME280;6587;42.728;23.288;2024-03-02T11:49:41;94880.00;;;10.71;83.29
13041;BME280;6587;42.728;23.288;2024-03-02T11:52:09;94876.16;;;10.76;84.17
13041;BME280;6587;42.728;23.288;2024-03-02T11:54:37;94885.50;;;10.98;83.75
13041;BME280;6587;42.728;23.288;2024-03-02T11:57:06;94873.56;;;10.72;83.72
13041;BME280;6587;42.728;23.288;2024-03-02T11:59:34;94879.78;;;10.48;83.98
13041;BME280;6587;42.728;23.288;2024-03-02T12:02:01;94877.09;;;10.55;84.33
13041;BME280;6587;42.728;23.288;2024-03-02T12:04:29;94879.41;;;10.50;84.99
13041;BME280;6587;42.728;23.288;2024-03-02T12:06:57;94880.22;;;10.40;85.51
13041;BME280;6587;42.728;23.288;2024-03-02T12:09:26;94880.97;;;10.44;85.44
13041;BME280;6587;42.728;23.288;2024-03-02T12:12:02;94877.53;;;10.43;85.86
13041;BME280;6587;42.728;23.288;2024-03-02T12:14:29;94884.09;;;10.28;86.17
13041;BME280;6587;42.728;23.288;2024-03-02T12:16:57;94872.97;;;10.44;86.82
13041;BME280;6587;42.728;23.288;2024-03-02T12:19:25;94881.66;;;10.51;86.33
13041;BME280;6587;42.728;23.288;2024-03-02T12:21:52;94876.53;;;10.23;85.80
13041;BME280;6587;42.728;23.288;2024-03-02T12:24:20;94886.38;;;10.30;86.00
13041;BME280;6587;42.728;23.288;2024-03-02T12:26:48;94881.06;;;10.30;86.06
13041;BME280;6587;42.728;23.288;2024-03-02T12:29:15;94875.72;;;10.30;86.17
13041;BME280;6587;42.728;23.288;2024-03-02T12:31:42;94880.97;;;10.40;86.08
13041;BME280;6587;42.728;23.288;2024-03-02T12:34:13;94880.50;;;10.56;85.48
13041;BME280;6587;42.728;23.288;2024-03-02T12:36:40;94882.84;;;10.47;84.90
13041;BME280;6587;42.728;23.288;2024-03-02T12:39:08;94877.19;;;10.41;85.64
13041;BME280;6587;42.728;23.288;2024-03-02T12:41:36;94885.59;;;10.33;86.58
13041;BME280;6587;42.728;23.288;2024-03-02T12:44:03;94883.09;;;9.94;85.81
13041;BME280;6587;42.728;23.288;2024-03-02T12:46:30;94884.22;;;9.93;86.24
13041;BME280;6587;42.728;23.288;2024-03-02T12:48:57;94877.34;;;10.03;86.09
13041;BME280;6587;42.728;23.288;2024-03-02T12:51:26;94886.09;;;10.07;86.18
13041;BME280;6587;42.728;23.288;2024-03-02T12:53:53;94890.28;;;10.08;86.74
13041;BME280;6587;42.728;23.288;2024-03-02T12:56:21;94889.13;;;10.12;87.18
13041;BME280;6587;42.728;23.288;2024-03-02T12:58:48;94884.91;;;10.18;87.37
13041;BME280;6587;42.728;23.288;2024-03-02T13:01:19;94892.56;;;10.09;86.38
13041;BME280;6587;42.728;23.288;2024-03-02T13:03:48;94890.66;;;10.10;86.46
13041;BME280;6587;42.728;23.288;2024-03-02T13:06:16;94890.25;;;10.15;85.98
13041;BME280;6587;42.728;23.288;2024-03-02T13:08:46;94892.56;;;10.09;85.72
13041;BME280;6587;42.728;23.288;2024-03-02T13:11:13;94884.22;;;10.04;86.44